Depauw, Indiana
Current Conditions -  °F | °C
As of 5:56 PM on Wednesday 22 Oct 2014 (Local Time) from KSDF Reporting Station
Few Clouds Few Clouds  
Wind Chill: 61°   Ceiling: Unl
Heat Index: 61°   Visibility: 10mi
Dew Point: 40°   Wind: 6mph
Humidity: 46%   Direction: NA
Pressure: 30.23"   Gusts: NA
Location:  38.33°N, 86.22°W
Report Text: KSDF 222156Z VRB05KT 10SM FEW045 16/04 A3023 RMK AO2 SLP236 T01610044
Loading
Personal Weather Stations






























Interactive Weather Map
Tropical Storm Tracking
New forecast layout! Learn more

10-Day Weather Forecast

Advertisements
Track Severe Weather on mobile